createdAt,value
2018-10-19T00:02:09.313Z,24.00
2018-10-19T00:05:13.012Z,28.63
2018-10-19T00:08:16.718Z,24.83
2018-10-19T00:11:20.433Z,29.90
2018-10-19T00:14:24.182Z,32.50
2018-10-19T00:17:27.889Z,26.90
2018-10-19T00:20:31.500Z,26.17
2018-10-19T00:23:35.165Z,33.70
2018-10-19T00:26:38.848Z,25.87
2018-10-19T00:29:42.605Z,37.13
2018-10-19T00:32:46.212Z,27.07
2018-10-19T00:35:49.832Z,29.53
2018-10-19T00:38:53.459Z,42.57
2018-10-19T00:41:56.967Z,36.33
2018-10-19T00:45:00.577Z,35.70
2018-10-19T00:48:11.964Z,31.70
2018-10-19T00:51:15.538Z,29.97
2018-10-19T00:54:19.203Z,39.70
2018-10-19T00:57:22.903Z,34.53
2018-10-19T01:00:26.528Z,38.23
2018-10-19T01:03:30.089Z,36.90
2018-10-19T01:06:33.699Z,39.37
2018-10-19T01:09:37.445Z,32.40
2018-10-19T01:12:41.023Z,28.37
2018-10-19T01:15:44.539Z,29.90
2018-10-19T01:18:48.129Z,36.40
2018-10-19T01:21:51.709Z,37.40
2018-10-19T01:24:55.379Z,34.53
2018-10-19T01:27:58.974Z,31.13
2018-10-19T01:31:02.523Z,40.03
2018-10-19T01:34:06.278Z,37.63
2018-10-19T01:37:09.913Z,41.30
2018-10-19T01:40:14.230Z,40.60
2018-10-19T01:43:17.816Z,36.03
2018-10-19T01:46:21.419Z,32.73
2018-10-19T01:49:24.998Z,37.67
2018-10-19T01:52:28.619Z,43.47
2018-10-19T01:55:32.115Z,54.23
2018-10-19T01:58:35.781Z,48.10
2018-10-19T02:01:39.267Z,40.70
2018-10-19T02:04:42.832Z,46.03
2018-10-19T02:07:46.487Z,48.40
2018-10-19T02:10:50.033Z,41.17
2018-10-19T02:13:53.725Z,35.23
2018-10-19T02:16:57.401Z,37.67
2018-10-19T02:20:00.937Z,39.70
2018-10-19T02:23:04.774Z,35.43
2018-10-19T02:26:08.434Z,46.23
2018-10-19T02:29:12.045Z,40.47
2018-10-19T02:32:15.620Z,34.80
2018-10-19T02:35:19.402Z,43.20
2018-10-19T02:38:23.046Z,47.10
2018-10-19T02:41:26.574Z,36.10
2018-10-19T02:44:30.232Z,53.23
2018-10-19T02:47:33.974Z,152.97
2018-10-19T02:50:37.526Z,109.87
2018-10-19T02:53:41.094Z,117.20
2018-10-19T02:56:44.634Z,181.13
2018-10-19T02:59:48.299Z,66.20
2018-10-19T03:02:51.876Z,61.50
2018-10-19T03:05:55.371Z,48.50
2018-10-19T03:08:58.936Z,268.90
2018-10-19T03:15:27.998Z,144.80
2018-10-19T03:18:31.520Z,219.47
2018-10-19T03:21:35.080Z,423.40
2018-10-19T03:24:38.925Z,289.17
2018-10-19T03:27:42.666Z,257.33
2018-10-19T03:30:46.281Z,110.93
2018-10-19T03:33:49.815Z,203.33
2018-10-19T03:36:53.394Z,207.13
2018-10-19T03:39:57.002Z,101.87
2018-10-19T03:43:00.584Z,163.10
2018-10-19T03:46:04.195Z,123.23
2018-10-19T03:49:07.932Z,194.87
2018-10-19T03:52:11.408Z,70.97
2018-10-19T03:55:15.122Z,132.03
2018-10-19T03:58:18.761Z,135.40
2018-10-19T04:01:22.454Z,58.73
2018-10-19T04:04:25.989Z,121.73
2018-10-19T04:07:29.620Z,198.70
2018-10-19T04:10:33.201Z,225.80
2018-10-19T04:13:37.760Z,300.40
2018-10-19T04:16:41.420Z,187.53
2018-10-19T04:19:45.105Z,172.90
2018-10-19T04:22:48.633Z,238.80
2018-10-19T04:25:52.176Z,290.80
2018-10-19T04:28:55.760Z,253.37
2018-10-19T04:31:59.295Z,258.90
2018-10-19T04:35:02.980Z,237.93
2018-10-19T04:38:06.520Z,286.90
2018-10-19T04:41:10.166Z,226.33
2018-10-19T04:44:13.727Z,131.00
2018-10-19T04:47:24.032Z,150.43
2018-10-19T04:50:27.662Z,100.70
2018-10-19T04:53:31.398Z,83.00
2018-10-19T04:56:34.890Z,254.13
2018-10-19T04:59:38.483Z,117.47
2018-10-19T05:02:42.104Z,148.27
2018-10-19T05:05:45.684Z,89.13
2018-10-19T05:08:49.214Z,180.17
2018-10-19T05:11:52.857Z,189.00
2018-10-19T05:14:56.375Z,83.13
2018-10-19T05:18:00.181Z,85.30
2018-10-19T05:21:04.038Z,132.13
2018-10-19T05:24:07.664Z,144.27
2018-10-19T05:27:11.322Z,107.50
2018-10-19T05:30:14.895Z,309.97
2018-10-19T05:33:18.462Z,171.00
2018-10-19T05:36:22.308Z,232.97
2018-10-19T05:39:25.846Z,196.50
2018-10-19T05:42:29.464Z,121.40
2018-10-19T05:45:33.068Z,224.57
2018-10-19T05:48:36.588Z,121.07
2018-10-19T05:51:40.115Z,76.97
2018-10-19T05:54:43.867Z,150.13
2018-10-19T05:57:47.435Z,70.20
2018-10-19T06:00:50.945Z,80.83
2018-10-19T06:03:54.536Z,255.93
2018-10-19T06:06:58.181Z,173.33
2018-10-19T06:10:01.863Z,50.67
2018-10-19T06:13:05.476Z,123.23
2018-10-19T06:16:09.061Z,107.60
2018-10-19T06:19:12.612Z,113.93
2018-10-19T06:22:16.217Z,86.93
2018-10-19T06:25:19.707Z,93.43
2018-10-19T06:28:23.323Z,123.53
2018-10-19T06:31:26.968Z,99.23
2018-10-19T06:34:30.521Z,101.70
2018-10-19T06:37:34.160Z,93.10
2018-10-19T06:40:37.753Z,96.03
2018-10-19T06:43:41.446Z,141.40
2018-10-19T06:46:45.060Z,129.37
2018-10-19T06:49:48.538Z,143.43
2018-10-19T06:52:52.096Z,79.13
2018-10-19T06:55:59.273Z,59.07
2018-10-19T06:59:05.166Z,58.07
2018-10-19T07:02:11.169Z,95.63
2018-10-19T07:05:16.042Z,76.17
2018-10-19T07:08:19.946Z,45.03
2018-10-19T07:11:23.593Z,62.60
2018-10-19T07:14:28.629Z,52.57
2018-10-19T07:17:32.160Z,50.07
2018-10-19T07:20:35.862Z,40.70
2018-10-19T07:23:39.443Z,41.57
2018-10-19T07:26:43.044Z,41.83
2018-10-19T07:29:46.675Z,90.03
2018-10-19T07:32:50.218Z,46.13
2018-10-19T07:35:54.063Z,81.97
2018-10-19T07:38:57.597Z,113.50
2018-10-19T07:42:01.193Z,119.77
2018-10-19T07:45:04.852Z,66.83
2018-10-19T07:48:08.711Z,62.60
2018-10-19T07:51:12.964Z,103.80
2018-10-19T07:54:16.535Z,27.70
2018-10-19T07:57:20.133Z,31.97
2018-10-19T08:00:23.786Z,76.60
2018-10-19T08:03:27.399Z,86.37
2018-10-19T08:06:31.047Z,75.73
2018-10-19T08:09:34.644Z,50.73
2018-10-19T08:12:38.265Z,49.23
2018-10-19T08:15:41.798Z,38.57
2018-10-19T08:18:45.403Z,68.83
2018-10-19T08:21:49.081Z,59.63
2018-10-19T08:24:53.694Z,48.50
2018-10-19T08:27:57.214Z,34.73
2018-10-19T08:31:00.808Z,68.23
2018-10-19T08:34:04.653Z,34.93
2018-10-19T08:37:08.188Z,51.53
2018-10-19T08:40:11.693Z,71.63
2018-10-19T08:43:15.330Z,78.80
2018-10-19T08:46:24.210Z,31.57
2018-10-19T08:49:27.858Z,93.40
2018-10-19T08:52:31.450Z,51.97
2018-10-19T08:55:35.148Z,83.87
2018-10-19T08:58:38.699Z,43.27
2018-10-19T09:01:42.254Z,47.00
2018-10-19T09:04:45.797Z,122.17
2018-10-19T09:07:49.474Z,36.00
2018-10-19T09:10:53.269Z,26.97
2018-10-19T09:13:56.820Z,34.83
2018-10-19T09:17:00.529Z,22.40
2018-10-19T09:20:04.395Z,27.13
2018-10-19T09:23:08.106Z,22.87
2018-10-19T09:26:11.654Z,27.97
2018-10-19T09:29:15.711Z,27.03
2018-10-19T09:32:19.258Z,21.00
2018-10-19T09:35:22.790Z,16.30
2018-10-19T09:38:26.342Z,17.43
2018-10-19T09:41:30.139Z,22.77
2018-10-19T09:44:33.859Z,16.27
2018-10-19T09:47:37.526Z,18.80
2018-10-19T09:50:41.124Z,16.97
2018-10-19T09:53:44.684Z,14.60
2018-10-19T09:56:48.257Z,16.57
2018-10-19T09:59:51.855Z,20.87
2018-10-19T10:02:55.549Z,17.63
2018-10-19T10:05:59.204Z,18.20
2018-10-19T10:09:03.004Z,23.73
2018-10-19T10:12:06.519Z,24.33
2018-10-19T10:15:10.240Z,20.47
2018-10-19T10:18:13.550Z,21.53
2018-10-19T10:21:17.375Z,23.47
2018-10-19T10:24:21.011Z,21.03
2018-10-19T10:27:24.721Z,21.40
2018-10-19T10:30:28.367Z,25.10
2018-10-19T10:33:31.985Z,21.20
2018-10-19T10:36:35.541Z,23.00
2018-10-19T10:39:39.076Z,22.10
2018-10-19T10:42:42.637Z,24.30
2018-10-19T10:45:46.210Z,23.80
2018-10-19T10:48:49.704Z,32.77
2018-10-19T10:51:53.431Z,25.00
2018-10-19T10:54:57.060Z,29.73
2018-10-19T10:58:00.724Z,26.60
2018-10-19T11:01:04.456Z,25.30
2018-10-19T11:04:08.123Z,23.07
2018-10-19T11:07:11.604Z,21.00
2018-10-19T11:10:15.137Z,24.57
2018-10-19T11:13:18.840Z,26.10
2018-10-19T11:16:22.447Z,18.90
2018-10-19T11:19:26.024Z,21.20
2018-10-19T11:22:29.605Z,26.90
2018-10-19T11:25:33.384Z,24.27
2018-10-19T11:28:36.949Z,21.17
2018-10-19T11:31:40.567Z,22.00
2018-10-19T11:34:44.079Z,22.13
2018-10-19T11:37:47.776Z,17.20
2018-10-19T11:40:51.305Z,26.70
2018-10-19T11:43:54.826Z,21.47
2018-10-19T11:47:00.732Z,24.53
2018-10-19T11:50:04.346Z,22.13
2018-10-19T11:53:07.986Z,22.80
2018-10-19T11:56:11.509Z,23.17
2018-10-19T11:59:15.099Z,21.60
2018-10-19T12:02:18.611Z,21.30
2018-10-19T12:05:22.282Z,16.50
2018-10-19T12:08:25.833Z,19.60
2018-10-19T12:11:29.520Z,17.73
2018-10-19T12:14:33.066Z,17.23
2018-10-19T12:17:36.632Z,17.70
2018-10-19T12:20:40.248Z,15.50
2018-10-19T12:23:43.882Z,19.97
2018-10-19T12:26:47.451Z,16.97
2018-10-19T12:29:51.137Z,15.80
2018-10-19T12:32:54.727Z,19.70
2018-10-19T12:35:58.312Z,10.63
2018-10-19T12:39:02.023Z,13.30
2018-10-19T12:42:05.845Z,12.47
2018-10-19T12:45:20.532Z,11.63
2018-10-19T12:48:24.201Z,14.63
2018-10-19T12:51:27.870Z,9.80
2018-10-19T12:54:32.872Z,13.23
2018-10-19T12:57:36.723Z,10.00
2018-10-19T13:00:40.456Z,14.83
2018-10-19T13:03:44.288Z,14.87
2018-10-19T13:06:47.925Z,14.60
2018-10-19T13:09:51.753Z,17.93
2018-10-19T13:12:55.377Z,15.43
2018-10-19T13:15:59.626Z,11.10
2018-10-19T13:19:03.543Z,9.80
2018-10-19T13:22:07.201Z,12.13
2018-10-19T13:25:10.943Z,12.10
2018-10-19T13:28:14.912Z,9.00
2018-10-19T13:31:18.575Z,10.50
2018-10-19T13:34:22.385Z,11.00
2018-10-19T13:37:26.042Z,15.73
2018-10-19T13:40:29.701Z,12.10
2018-10-19T13:43:33.173Z,12.10
2018-10-19T13:46:36.991Z,12.10
2018-10-19T13:49:40.655Z,11.47
2018-10-19T13:52:44.369Z,13.43
2018-10-19T13:55:48.063Z,20.70
2018-10-19T13:58:51.673Z,13.93
2018-10-19T14:01:55.377Z,10.80
2018-10-19T14:04:59.024Z,12.33
2018-10-19T14:08:02.534Z,11.03
2018-10-19T14:11:06.440Z,14.13
2018-10-19T14:14:10.174Z,8.80
2018-10-19T14:17:14.006Z,11.90
2018-10-19T14:20:17.643Z,10.03
2018-10-19T14:23:21.236Z,12.03
2018-10-19T14:26:24.821Z,15.40
2018-10-19T14:29:28.539Z,15.90
2018-10-19T14:32:32.153Z,10.50
2018-10-19T14:35:35.903Z,9.67
2018-10-19T14:38:39.614Z,7.17
2018-10-19T14:41:43.304Z,10.20
2018-10-19T14:44:46.968Z,7.83
2018-10-19T14:47:50.488Z,9.60
2018-10-19T14:50:54.129Z,13.27
2018-10-19T14:53:57.778Z,7.33
2018-10-19T14:57:01.418Z,8.37
2018-10-19T15:00:05.883Z,10.87
2018-10-19T15:03:09.693Z,11.47
2018-10-19T15:06:13.236Z,9.00
2018-10-19T15:09:17.044Z,9.90
2018-10-19T15:12:20.768Z,7.50
2018-10-19T15:15:24.497Z,14.40
2018-10-19T15:18:28.087Z,6.87
2018-10-19T15:21:31.842Z,9.70
2018-10-19T15:24:35.484Z,8.03
2018-10-19T15:27:40.010Z,7.37
2018-10-19T15:30:43.633Z,8.53
2018-10-19T15:33:47.178Z,7.00
2018-10-19T15:36:50.790Z,7.70
2018-10-19T15:39:54.568Z,8.43
2018-10-19T15:42:58.214Z,12.50
2018-10-19T15:46:01.799Z,12.50
2018-10-19T15:49:05.425Z,9.67
2018-10-19T15:52:08.987Z,10.33
2018-10-19T15:55:12.643Z,9.97
2018-10-19T15:58:16.315Z,7.30
2018-10-19T16:01:19.909Z,11.83
2018-10-19T16:04:23.516Z,14.10
2018-10-19T16:07:27.163Z,8.17
2018-10-19T16:10:30.817Z,14.90
2018-10-19T16:13:34.642Z,6.50
2018-10-19T16:16:38.270Z,7.70
2018-10-19T16:19:42.183Z,8.83
2018-10-19T16:22:45.802Z,10.40
2018-10-19T16:25:49.492Z,10.30
2018-10-19T16:28:53.133Z,10.33
2018-10-19T16:31:56.840Z,9.93
2018-10-19T16:35:00.613Z,14.63
2018-10-19T16:38:04.438Z,11.77
2018-10-19T16:41:08.045Z,9.43
2018-10-19T16:44:11.734Z,11.00
2018-10-19T16:47:15.468Z,9.73
2018-10-19T16:50:19.093Z,8.70
2018-10-19T16:53:22.905Z,11.23
2018-10-19T16:56:26.701Z,8.13
2018-10-19T16:59:30.370Z,8.80
2018-10-19T17:02:33.936Z,9.87
2018-10-19T17:05:37.763Z,12.30
2018-10-19T17:08:41.457Z,13.70
2018-10-19T17:11:45.031Z,9.10
2018-10-19T17:14:48.760Z,11.37
2018-10-19T17:17:52.419Z,10.23
2018-10-19T17:20:56.126Z,12.50
2018-10-19T17:23:59.898Z,10.00
2018-10-19T17:27:03.541Z,10.10
2018-10-19T17:30:09.590Z,9.03
2018-10-19T17:33:13.303Z,12.20
2018-10-19T17:36:16.832Z,9.03
2018-10-19T17:39:20.545Z,4.93
2018-10-19T17:42:24.457Z,11.70
2018-10-19T17:45:28.144Z,11.17
2018-10-19T17:48:31.848Z,10.23
2018-10-19T17:51:35.544Z,14.17
2018-10-19T17:54:39.177Z,13.70
2018-10-19T17:57:42.801Z,10.60
2018-10-19T18:00:46.406Z,12.63
2018-10-19T18:03:49.966Z,11.63
2018-10-19T18:06:53.636Z,8.93
2018-10-19T18:09:57.371Z,8.60
2018-10-19T18:13:01.106Z,16.13
2018-10-19T18:16:05.000Z,8.93
2018-10-19T18:19:08.480Z,11.57
2018-10-19T18:22:12.660Z,11.67
2018-10-19T18:25:16.077Z,13.93
2018-10-19T18:28:19.749Z,10.87
2018-10-19T18:31:23.381Z,9.13
2018-10-19T18:34:27.091Z,9.17
2018-10-19T18:37:31.184Z,7.53
2018-10-19T18:40:34.791Z,11.87
2018-10-19T18:43:38.494Z,11.30
2018-10-19T18:46:42.154Z,13.43
2018-10-19T18:49:45.835Z,15.23
2018-10-19T18:52:49.443Z,6.63
2018-10-19T18:55:53.187Z,11.10
2018-10-19T18:58:56.908Z,11.43
2018-10-19T19:02:00.600Z,7.90
2018-10-19T19:05:04.308Z,14.13
2018-10-19T19:08:08.107Z,10.30
2018-10-19T19:11:11.681Z,16.70
2018-10-19T19:14:15.506Z,10.40
2018-10-19T19:17:18.955Z,12.33
2018-10-19T19:20:29.833Z,16.60
2018-10-19T19:23:37.617Z,11.37
2018-10-19T19:26:41.361Z,12.87
2018-10-19T19:29:45.232Z,15.07
2018-10-19T19:32:54.082Z,10.47
2018-10-19T19:35:57.500Z,14.97
2018-10-19T19:39:02.180Z,14.80
2018-10-19T19:42:11.589Z,14.13
2018-10-19T19:45:15.526Z,13.50
2018-10-19T19:48:24.373Z,15.10
2018-10-19T19:51:28.798Z,13.40
2018-10-19T19:54:32.477Z,14.37
2018-10-19T19:57:36.117Z,10.67
2018-10-19T20:00:39.726Z,12.43
2018-10-19T20:03:43.352Z,14.27
2018-10-19T20:06:47.018Z,18.30
2018-10-19T20:09:50.903Z,11.30
2018-10-19T20:12:54.513Z,14.43
2018-10-19T20:15:58.523Z,14.80
2018-10-19T20:19:02.227Z,11.97
2018-10-19T20:22:06.255Z,16.50
2018-10-19T20:25:10.988Z,15.50
2018-10-19T20:28:14.657Z,22.50
2018-10-19T20:31:18.256Z,15.33
2018-10-19T20:34:21.968Z,14.70
2018-10-19T20:37:25.852Z,15.73
2018-10-19T20:40:29.418Z,16.30
2018-10-19T20:43:33.251Z,14.27
2018-10-19T20:46:36.947Z,17.87
2018-10-19T20:49:40.443Z,16.83
2018-10-19T20:52:44.043Z,17.33
2018-10-19T20:55:47.769Z,18.27
2018-10-19T20:58:51.390Z,16.10
2018-10-19T21:01:55.125Z,15.67
2018-10-19T21:04:58.795Z,22.03
2018-10-19T21:08:02.549Z,16.30
2018-10-19T21:11:07.014Z,19.43
2018-10-19T21:14:17.125Z,14.23
2018-10-19T21:17:20.853Z,16.50
2018-10-19T21:20:24.384Z,15.33
2018-10-19T21:23:28.035Z,16.73
2018-10-19T21:26:32.039Z,20.27
2018-10-19T21:29:35.647Z,22.40
2018-10-19T21:32:39.254Z,20.53
2018-10-19T21:35:42.828Z,21.83
2018-10-19T21:38:46.583Z,19.43
2018-10-19T21:41:50.169Z,20.73
2018-10-19T21:44:53.827Z,21.73
2018-10-19T21:47:57.366Z,19.57
2018-10-19T21:51:01.007Z,20.60
2018-10-19T21:54:05.175Z,18.50
2018-10-19T21:57:08.878Z,14.23
2018-10-19T22:00:12.717Z,20.93
2018-10-19T22:03:16.317Z,16.70
2018-10-19T22:06:19.923Z,23.27
2018-10-19T22:09:23.543Z,22.77
2018-10-19T22:12:27.265Z,17.13
2018-10-19T22:15:37.319Z,21.83
2018-10-19T22:18:40.917Z,23.20
2018-10-19T22:21:44.519Z,23.43
2018-10-19T22:24:48.139Z,21.50
2018-10-19T22:27:52.106Z,21.77
2018-10-19T22:30:55.787Z,19.73
2018-10-19T22:33:59.391Z,19.40
2018-10-19T22:37:02.969Z,21.90
2018-10-19T22:40:07.099Z,23.90
2018-10-19T22:43:10.715Z,23.83
2018-10-19T22:46:14.319Z,23.87
2018-10-19T22:49:17.939Z,22.67
2018-10-19T22:52:21.612Z,20.90
2018-10-19T22:55:25.292Z,26.20
2018-10-19T22:58:28.863Z,29.07
2018-10-19T23:01:32.407Z,21.73
2018-10-19T23:04:35.983Z,21.90
2018-10-19T23:07:39.627Z,25.30
2018-10-19T23:10:43.463Z,22.80
2018-10-19T23:13:47.263Z,30.20
2018-10-19T23:16:50.874Z,38.27
2018-10-19T23:19:54.699Z,38.17
2018-10-19T23:22:58.342Z,35.90
2018-10-19T23:26:01.918Z,34.97
2018-10-19T23:29:06.039Z,32.30
2018-10-19T23:32:09.513Z,34.50
2018-10-19T23:35:13.261Z,38.07
2018-10-19T23:38:16.733Z,34.93
2018-10-19T23:41:20.404Z,34.10
2018-10-19T23:44:23.989Z,34.03
2018-10-19T23:47:27.705Z,40.33
2018-10-19T23:50:31.269Z,41.20
2018-10-19T23:53:34.988Z,38.67
2018-10-19T23:56:38.645Z,43.50
2018-10-19T23:59:42.308Z,41.47
